createdAt,value
2023-03-16T00:00:43.074Z,4.75
2023-03-16T00:03:11.343Z,4.65
2023-03-16T00:05:39.104Z,4.69
2023-03-16T00:08:05.722Z,4.70
2023-03-16T00:10:32.510Z,4.57
2023-03-16T00:12:59.363Z,4.48
2023-03-16T00:15:25.974Z,4.32
2023-03-16T00:17:52.621Z,4.40
2023-03-16T00:20:19.428Z,4.26
2023-03-16T00:22:46.211Z,4.28
2023-03-16T00:25:16.986Z,4.42
2023-03-16T00:27:43.724Z,4.52
2023-03-16T00:30:11.644Z,4.68
2023-03-16T00:32:38.370Z,4.63
2023-03-16T00:35:08.231Z,4.50
2023-03-16T00:37:39.250Z,4.48
2023-03-16T00:40:07.859Z,4.44
2023-03-16T00:42:34.708Z,4.45
2023-03-16T00:45:01.991Z,4.37
2023-03-16T00:47:33.172Z,4.33
2023-03-16T00:50:01.800Z,4.42
2023-03-16T00:52:30.507Z,4.39
2023-03-16T00:54:58.163Z,4.39
2023-03-16T00:57:26.004Z,4.32
2023-03-16T00:59:52.856Z,4.41
2023-03-16T01:02:23.452Z,4.33
2023-03-16T01:04:52.015Z,4.50
2023-03-16T01:07:19.027Z,4.45
2023-03-16T01:09:45.646Z,3.90
2023-03-16T01:12:15.640Z,3.98
2023-03-16T01:14:45.869Z,4.14
2023-03-16T01:17:14.745Z,4.38
2023-03-16T01:19:43.637Z,4.37
2023-03-16T01:22:11.631Z,4.19
2023-03-16T01:24:39.089Z,4.26
2023-03-16T01:27:07.644Z,4.32
2023-03-16T01:29:35.159Z,4.29
2023-03-16T01:32:04.193Z,4.30
2023-03-16T01:34:31.944Z,3.94
2023-03-16T01:36:59.711Z,3.76
2023-03-16T01:39:37.553Z,3.66
2023-03-16T01:42:05.569Z,3.40
2023-03-16T01:45:05.484Z,3.61
2023-03-16T01:47:38.824Z,3.62
2023-03-16T01:50:10.737Z,3.96
2023-03-16T01:52:39.973Z,4.12
2023-03-16T01:55:08.999Z,4.24
2023-03-16T01:57:40.377Z,4.14
2023-03-16T02:00:19.424Z,3.73
2023-03-16T02:03:07.313Z,3.84
2023-03-16T02:06:05.263Z,3.66
2023-03-16T02:08:33.973Z,3.70
2023-03-16T02:11:01.054Z,3.64
2023-03-16T02:13:40.379Z,3.99
2023-03-16T02:16:08.693Z,4.17
2023-03-16T02:18:36.329Z,4.33
2023-03-16T02:21:19.336Z,4.41
2023-03-16T02:23:48.482Z,4.26
2023-03-16T02:26:33.276Z,4.32
2023-03-16T02:29:14.403Z,4.32
2023-03-16T02:31:41.592Z,4.30
2023-03-16T02:34:09.925Z,4.27
2023-03-16T02:36:39.210Z,4.27
2023-03-16T02:39:05.959Z,4.33
2023-03-16T02:41:41.802Z,4.28
2023-03-16T02:44:15.311Z,4.22
2023-03-16T02:46:43.884Z,4.19
2023-03-16T02:49:19.839Z,4.07
2023-03-16T02:51:47.327Z,3.98
2023-03-16T02:54:14.506Z,4.02
2023-03-16T02:56:41.953Z,4.03
2023-03-16T02:59:12.116Z,4.02
2023-03-16T03:01:39.078Z,3.99
2023-03-16T03:04:06.314Z,3.94
2023-03-16T03:06:33.556Z,4.06
2023-03-16T03:09:02.023Z,4.16
2023-03-16T03:11:29.783Z,4.09
2023-03-16T03:13:56.849Z,4.02
2023-03-16T03:16:26.563Z,3.83
2023-03-16T03:18:55.173Z,3.94
2023-03-16T03:21:22.016Z,4.01
2023-03-16T03:23:48.738Z,4.06
2023-03-16T03:26:16.805Z,3.99
2023-03-16T03:28:44.989Z,4.08
2023-03-16T03:31:18.144Z,4.09
2023-03-16T03:33:45.099Z,4.15
2023-03-16T03:36:12.316Z,4.09
2023-03-16T03:38:40.113Z,4.03
2023-03-16T03:41:08.397Z,3.97
2023-03-16T03:43:37.531Z,3.99
2023-03-16T03:46:05.450Z,3.98
2023-03-16T03:48:34.012Z,3.93
2023-03-16T03:51:01.523Z,3.91
2023-03-16T03:53:48.483Z,3.84
2023-03-16T03:56:38.240Z,3.97
2023-03-16T03:59:09.355Z,3.98
2023-03-16T04:01:54.505Z,4.00
2023-03-16T04:04:24.354Z,3.94
2023-03-16T04:06:51.794Z,3.95
2023-03-16T04:09:18.422Z,3.81
2023-03-16T04:11:46.420Z,3.81
2023-03-16T04:14:13.142Z,3.85
2023-03-16T04:16:40.640Z,3.77
2023-03-16T04:19:07.386Z,3.29
2023-03-16T04:21:34.277Z,3.25
2023-03-16T04:24:03.934Z,3.30
2023-03-16T04:26:34.274Z,3.33
2023-03-16T04:29:03.787Z,3.29
2023-03-16T04:31:32.423Z,3.28
2023-03-16T04:33:59.579Z,3.25
2023-03-16T04:36:26.406Z,3.14
2023-03-16T04:38:54.249Z,3.10
2023-03-16T04:41:21.030Z,3.21
2023-03-16T04:43:58.830Z,3.41
2023-03-16T04:46:27.046Z,3.57
2023-03-16T04:48:58.205Z,3.74
2023-03-16T04:51:26.902Z,3.82
2023-03-16T04:54:04.470Z,3.95
2023-03-16T04:56:35.260Z,3.97
2023-03-16T04:59:06.696Z,4.15
2023-03-16T05:01:43.615Z,4.12
2023-03-16T05:04:15.038Z,4.09
2023-03-16T05:06:45.902Z,3.94
2023-03-16T05:09:13.868Z,3.93
2023-03-16T05:11:40.556Z,3.84
2023-03-16T05:14:10.240Z,3.53
2023-03-16T05:16:49.916Z,3.84
2023-03-16T05:19:16.551Z,3.99
2023-03-16T05:21:45.642Z,4.01
2023-03-16T05:24:12.241Z,3.96
2023-03-16T05:26:38.984Z,4.00
2023-03-16T05:29:09.569Z,3.88
2023-03-16T05:31:37.837Z,3.95
2023-03-16T05:34:10.385Z,3.91
2023-03-16T05:36:37.131Z,3.83
2023-03-16T05:39:11.873Z,3.72
2023-03-16T05:41:42.616Z,3.79
2023-03-16T05:44:29.498Z,3.90
2023-03-16T05:47:22.347Z,3.63
2023-03-16T05:49:54.624Z,3.74
2023-03-16T05:52:38.555Z,3.78
2023-03-16T05:55:14.607Z,3.71
2023-03-16T05:57:42.053Z,3.80
2023-03-16T06:00:15.453Z,3.74
2023-03-16T06:02:51.398Z,3.81
2023-03-16T06:05:21.828Z,3.84
2023-03-16T06:07:51.473Z,3.86
2023-03-16T06:10:19.048Z,3.70
2023-03-16T06:12:46.392Z,3.82
2023-03-16T06:15:13.998Z,3.64
2023-03-16T06:17:41.481Z,3.47
2023-03-16T06:20:11.046Z,3.74
2023-03-16T06:22:41.174Z,3.97
2023-03-16T06:25:09.889Z,3.56
2023-03-16T06:27:36.908Z,3.51
2023-03-16T06:30:13.662Z,3.60
2023-03-16T06:32:44.327Z,3.74
2023-03-16T06:35:12.652Z,3.80
2023-03-16T06:37:44.871Z,3.77
2023-03-16T06:40:41.314Z,4.00
2023-03-16T06:43:08.347Z,4.04
2023-03-16T06:45:35.645Z,4.14
2023-03-16T06:48:03.277Z,4.26
2023-03-16T06:50:30.515Z,4.49
2023-03-16T06:52:57.226Z,4.68
2023-03-16T06:55:24.473Z,4.75
2023-03-16T06:57:51.746Z,4.96
2023-03-16T07:00:19.306Z,5.17
2023-03-16T07:02:45.998Z,5.01
2023-03-16T07:05:14.226Z,5.36
2023-03-16T07:07:42.734Z,5.22
2023-03-16T07:10:15.379Z,5.12
2023-03-16T07:12:42.345Z,5.14
2023-03-16T07:15:10.088Z,5.13
2023-03-16T07:17:36.956Z,5.59
2023-03-16T07:20:05.902Z,5.81
2023-03-16T07:22:33.159Z,5.23
2023-03-16T07:25:01.382Z,5.18
2023-03-16T07:27:29.834Z,5.52
2023-03-16T07:29:58.142Z,5.86
2023-03-16T07:32:24.927Z,6.14
2023-03-16T07:34:51.951Z,6.38
2023-03-16T07:37:25.044Z,6.18
2023-03-16T07:39:54.343Z,6.04
2023-03-16T07:42:22.637Z,6.25
2023-03-16T07:44:59.030Z,6.82
2023-03-16T07:47:26.593Z,7.05
2023-03-16T07:49:56.394Z,7.45
2023-03-16T07:52:24.135Z,7.34
2023-03-16T07:54:51.909Z,7.43
2023-03-16T07:57:18.652Z,7.70
2023-03-16T07:59:45.379Z,7.51
2023-03-16T08:02:16.700Z,7.46
2023-03-16T08:04:44.654Z,7.47
2023-03-16T08:07:15.298Z,7.64
2023-03-16T08:09:52.053Z,7.40
2023-03-16T08:12:24.334Z,7.91
2023-03-16T08:14:51.092Z,7.57
2023-03-16T08:17:25.781Z,7.94
2023-03-16T08:19:53.469Z,8.15
2023-03-16T08:22:24.367Z,7.80
2023-03-16T08:24:52.164Z,7.95
2023-03-16T08:27:20.393Z,8.26
2023-03-16T08:29:54.046Z,8.05
2023-03-16T08:32:24.389Z,8.15
2023-03-16T08:34:52.635Z,8.50
2023-03-16T08:37:19.808Z,8.72
2023-03-16T08:39:46.789Z,8.14
2023-03-16T08:42:16.696Z,8.43
2023-03-16T08:44:47.956Z,8.27
2023-03-16T08:47:15.004Z,8.10
2023-03-16T08:49:44.686Z,7.84
2023-03-16T08:52:14.059Z,8.04
2023-03-16T08:54:47.151Z,8.30
2023-03-16T08:57:19.601Z,8.43
2023-03-16T08:59:46.197Z,8.00
2023-03-16T09:02:16.598Z,8.27
2023-03-16T09:04:43.393Z,8.46
2023-03-16T09:07:11.374Z,8.55
2023-03-16T09:09:38.283Z,8.96
2023-03-16T09:12:06.148Z,8.46
2023-03-16T09:14:33.357Z,8.32
2023-03-16T09:17:00.205Z,8.63
2023-03-16T09:19:28.025Z,9.17
2023-03-16T09:21:58.754Z,9.33
2023-03-16T09:24:25.883Z,9.19
2023-03-16T09:26:52.522Z,8.33
2023-03-16T09:29:19.298Z,8.87
2023-03-16T09:31:46.326Z,9.38
2023-03-16T09:34:12.958Z,9.03
2023-03-16T09:36:40.710Z,9.19
2023-03-16T09:39:07.560Z,9.34
2023-03-16T09:41:49.698Z,9.04
2023-03-16T09:44:43.081Z,8.75
2023-03-16T09:47:12.069Z,8.78
2023-03-16T09:49:46.150Z,8.95
2023-03-16T09:52:40.742Z,9.03
2023-03-16T09:55:23.600Z,8.86
2023-03-16T09:57:51.943Z,8.81
2023-03-16T10:00:25.737Z,8.66
2023-03-16T10:03:09.765Z,8.82
2023-03-16T10:05:38.622Z,8.60
2023-03-16T10:08:25.939Z,9.37
2023-03-16T10:11:34.194Z,9.64
2023-03-16T10:14:24.825Z,9.97
2023-03-16T10:17:01.248Z,9.50
2023-03-16T10:19:41.308Z,10.06
2023-03-16T10:22:19.783Z,10.26
2023-03-16T10:25:08.296Z,10.19
2023-03-16T10:27:38.370Z,10.27
2023-03-16T10:30:14.579Z,10.34
2023-03-16T10:32:41.420Z,10.55
2023-03-16T10:35:34.454Z,9.99
2023-03-16T10:38:01.089Z,10.66
2023-03-16T10:40:33.120Z,10.92
2023-03-16T10:43:13.808Z,11.04
2023-03-16T10:45:47.104Z,11.34
2023-03-16T10:48:20.297Z,11.18
2023-03-16T10:50:57.318Z,11.07
2023-03-16T10:53:31.495Z,11.07
2023-03-16T10:56:00.461Z,10.86
2023-03-16T10:58:31.313Z,10.66
2023-03-16T11:00:58.494Z,10.29
2023-03-16T11:03:31.580Z,10.60
2023-03-16T11:06:04.879Z,10.90
2023-03-16T11:08:39.812Z,11.30
2023-03-16T11:11:14.644Z,11.10
2023-03-16T11:13:45.426Z,10.88
2023-03-16T11:16:26.782Z,10.70
2023-03-16T11:19:20.671Z,10.74
2023-03-16T11:21:58.897Z,10.77
2023-03-16T11:24:44.362Z,11.06
2023-03-16T11:27:24.792Z,11.09
2023-03-16T11:30:05.331Z,11.21
2023-03-16T11:32:38.192Z,11.29
2023-03-16T11:35:14.877Z,11.13
2023-03-16T11:38:11.143Z,10.80
2023-03-16T11:40:51.162Z,10.05
2023-03-16T11:43:44.923Z,10.33
2023-03-16T11:46:23.920Z,10.21
2023-03-16T11:49:19.016Z,10.31
2023-03-16T11:51:54.478Z,10.68
2023-03-16T11:54:49.288Z,10.50
2023-03-16T11:57:33.556Z,10.57
2023-03-16T12:00:17.087Z,10.81
2023-03-16T12:03:11.667Z,10.86
2023-03-16T12:05:55.122Z,10.66
2023-03-16T12:08:55.773Z,10.97
2023-03-16T12:11:34.118Z,11.19
2023-03-16T12:14:26.573Z,11.15
2023-03-16T12:17:03.382Z,10.73
2023-03-16T12:19:45.644Z,10.67
2023-03-16T12:22:19.869Z,10.95
2023-03-16T12:24:48.025Z,10.93
2023-03-16T12:27:23.895Z,11.16
2023-03-16T12:30:08.693Z,10.83
2023-03-16T12:32:45.154Z,10.85
2023-03-16T12:35:31.709Z,10.84
2023-03-16T12:38:02.274Z,10.90
2023-03-16T12:40:39.898Z,10.91
2023-03-16T12:43:16.541Z,11.09
2023-03-16T12:46:14.143Z,11.18
2023-03-16T12:48:46.068Z,11.13
2023-03-16T12:51:12.792Z,11.06
2023-03-16T12:53:43.341Z,11.03
2023-03-16T12:56:13.294Z,10.80
2023-03-16T12:58:45.395Z,10.87
2023-03-16T13:01:15.299Z,10.79
2023-03-16T13:03:43.126Z,11.05
2023-03-16T13:06:19.234Z,11.00
2023-03-16T13:08:52.417Z,11.08
2023-03-16T13:11:19.279Z,11.21
2023-03-16T13:14:08.509Z,11.20
2023-03-16T13:16:37.543Z,11.27
2023-03-16T13:19:19.749Z,11.37
2023-03-16T13:21:46.934Z,11.34
2023-03-16T13:24:28.856Z,11.53
2023-03-16T13:27:03.660Z,11.55
2023-03-16T13:29:32.534Z,11.67
2023-03-16T13:32:02.790Z,11.84
2023-03-16T13:34:36.438Z,11.89
2023-03-16T13:37:04.117Z,11.74
2023-03-16T13:39:32.075Z,11.79
2023-03-16T13:42:04.804Z,11.77
2023-03-16T13:44:32.860Z,11.85
2023-03-16T13:47:05.038Z,12.02
2023-03-16T13:49:31.920Z,12.24
2023-03-16T13:51:58.843Z,12.28
2023-03-16T13:54:30.415Z,12.22
2023-03-16T13:57:04.097Z,12.13
2023-03-16T13:59:31.554Z,12.13
2023-03-16T14:02:02.107Z,12.17
2023-03-16T14:04:31.577Z,12.44
2023-03-16T14:07:01.813Z,12.41
2023-03-16T14:09:31.887Z,12.45
2023-03-16T14:11:59.624Z,12.51
2023-03-16T14:14:37.046Z,12.48
2023-03-16T14:17:11.126Z,12.56
2023-03-16T14:19:45.757Z,12.55
2023-03-16T14:22:23.428Z,12.54
2023-03-16T14:24:56.813Z,12.65
2023-03-16T14:27:32.974Z,12.61
2023-03-16T14:30:15.086Z,12.48
2023-03-16T14:32:42.352Z,12.59
2023-03-16T14:35:15.677Z,12.70
2023-03-16T14:37:43.202Z,12.83
2023-03-16T14:40:24.279Z,12.70
2023-03-16T14:42:53.154Z,12.73
2023-03-16T14:45:20.877Z,12.76
2023-03-16T14:47:50.120Z,12.72
2023-03-16T14:50:23.744Z,12.81
2023-03-16T14:52:51.497Z,12.86
2023-03-16T14:55:20.177Z,12.87
2023-03-16T14:57:46.956Z,12.92
2023-03-16T15:00:16.537Z,12.99
2023-03-16T15:02:48.662Z,13.00
2023-03-16T15:05:31.140Z,12.85
2023-03-16T15:07:58.535Z,13.00
2023-03-16T15:10:29.301Z,13.10
2023-03-16T15:13:04.442Z,13.02
2023-03-16T15:15:32.523Z,12.95
2023-03-16T15:17:59.914Z,12.71
2023-03-16T15:20:35.194Z,12.73
2023-03-16T15:23:05.295Z,12.56
2023-03-16T15:25:36.476Z,12.55
2023-03-16T15:28:15.890Z,12.62
2023-03-16T15:30:44.712Z,12.59
2023-03-16T15:33:12.640Z,12.66
2023-03-16T15:35:42.457Z,12.53
2023-03-16T15:38:25.303Z,12.45
2023-03-16T15:40:53.200Z,12.47
2023-03-16T15:43:22.965Z,12.53
2023-03-16T15:45:51.974Z,12.54
2023-03-16T15:48:21.594Z,12.41
2023-03-16T15:50:53.107Z,12.39
2023-03-16T15:53:31.870Z,12.42
2023-03-16T15:56:04.562Z,12.38
2023-03-16T15:58:33.875Z,12.42
2023-03-16T16:01:02.656Z,12.53
2023-03-16T16:03:29.817Z,12.36
2023-03-16T16:05:57.222Z,12.25
2023-03-16T16:08:23.921Z,12.34
2023-03-16T16:10:53.380Z,12.36
2023-03-16T16:13:34.081Z,12.31
2023-03-16T16:16:17.786Z,12.24
2023-03-16T16:18:47.321Z,12.31
2023-03-16T16:21:24.490Z,12.12
2023-03-16T16:23:52.754Z,12.08
2023-03-16T16:26:34.335Z,12.03
2023-03-16T16:29:28.051Z,11.99
2023-03-16T16:31:55.614Z,12.06
2023-03-16T16:34:27.184Z,12.01
2023-03-16T16:36:56.678Z,11.91
2023-03-16T16:39:26.171Z,11.80
2023-03-16T16:41:55.216Z,11.89
2023-03-16T16:44:29.030Z,12.02
2023-03-16T16:46:57.514Z,11.88
2023-03-16T16:49:28.091Z,11.96
2023-03-16T16:51:54.988Z,12.00
2023-03-16T16:54:24.372Z,11.86
2023-03-16T16:56:53.884Z,11.93
2023-03-16T16:59:33.111Z,11.72
2023-03-16T17:02:03.096Z,11.81
2023-03-16T17:04:30.724Z,11.77
2023-03-16T17:07:00.879Z,11.76
2023-03-16T17:09:29.085Z,11.76
2023-03-16T17:11:59.491Z,11.52
2023-03-16T17:14:28.132Z,11.54
2023-03-16T17:16:56.951Z,11.54
2023-03-16T17:19:28.505Z,11.57
2023-03-16T17:21:57.520Z,11.62
2023-03-16T17:24:24.958Z,11.57
2023-03-16T17:27:03.494Z,11.41
2023-03-16T17:29:32.765Z,11.37
2023-03-16T17:32:02.311Z,11.38
2023-03-16T17:34:32.611Z,11.25
2023-03-16T17:36:59.214Z,11.43
2023-03-16T17:39:29.028Z,11.35
2023-03-16T17:41:58.952Z,11.30
2023-03-16T17:44:30.144Z,11.27
2023-03-16T17:46:57.165Z,11.28
2023-03-16T17:49:28.356Z,11.26
2023-03-16T17:51:55.393Z,11.18
2023-03-16T17:54:22.766Z,11.22
2023-03-16T17:56:52.062Z,11.22
2023-03-16T17:59:21.096Z,11.16
2023-03-16T18:01:48.853Z,11.12
2023-03-16T18:04:24.943Z,11.08
2023-03-16T18:06:52.286Z,10.99
2023-03-16T18:09:20.408Z,10.91
2023-03-16T18:11:49.865Z,11.16
2023-03-16T18:14:25.466Z,11.21
2023-03-16T18:16:52.605Z,11.17
2023-03-16T18:19:25.211Z,11.12
2023-03-16T18:21:53.581Z,10.88
2023-03-16T18:24:22.244Z,10.75
2023-03-16T18:26:49.052Z,10.73
2023-03-16T18:29:16.193Z,10.73
2023-03-16T18:31:47.542Z,10.84
2023-03-16T18:34:23.887Z,10.81
2023-03-16T18:36:55.663Z,10.87
2023-03-16T18:39:22.922Z,10.84
2023-03-16T18:41:51.036Z,10.65
2023-03-16T18:44:24.232Z,10.81
2023-03-16T18:46:54.638Z,10.72
2023-03-16T18:49:33.608Z,10.80
2023-03-16T18:52:00.786Z,10.87
2023-03-16T18:54:31.550Z,10.83
2023-03-16T18:57:04.158Z,10.82
2023-03-16T18:59:32.381Z,10.81
2023-03-16T19:01:59.961Z,10.71
2023-03-16T19:04:30.010Z,10.76
2023-03-16T19:06:59.634Z,10.82
2023-03-16T19:09:35.100Z,10.78
2023-03-16T19:12:03.726Z,10.80
2023-03-16T19:14:34.967Z,10.76
2023-03-16T19:17:02.225Z,10.78
2023-03-16T19:19:30.602Z,10.72
2023-03-16T19:22:10.171Z,10.76
2023-03-16T19:24:48.666Z,10.69
2023-03-16T19:27:24.307Z,10.73
2023-03-16T19:29:58.022Z,10.69
2023-03-16T19:32:26.618Z,10.68
2023-03-16T19:35:04.297Z,10.47
2023-03-16T19:37:35.299Z,10.73
2023-03-16T19:40:03.508Z,10.67
2023-03-16T19:42:37.533Z,10.75
2023-03-16T19:45:06.027Z,10.68
2023-03-16T19:47:39.883Z,10.63
2023-03-16T19:50:14.929Z,10.54
2023-03-16T19:52:41.870Z,10.63
2023-03-16T19:55:09.575Z,10.62
2023-03-16T19:57:37.009Z,10.49
2023-03-16T20:00:06.523Z,10.48
2023-03-16T20:02:39.927Z,10.45
2023-03-16T20:05:16.308Z,10.39
2023-03-16T20:07:43.886Z,10.36
2023-03-16T20:10:18.468Z,10.33
2023-03-16T20:12:47.073Z,10.32
2023-03-16T20:15:20.952Z,10.37
2023-03-16T20:17:50.019Z,10.42
2023-03-16T20:20:35.228Z,10.49
2023-03-16T20:23:02.432Z,10.40
2023-03-16T20:25:32.359Z,10.40
2023-03-16T20:28:05.851Z,10.27
2023-03-16T20:30:33.784Z,10.24
2023-03-16T20:33:01.761Z,10.43
2023-03-16T20:35:32.385Z,10.39
2023-03-16T20:38:02.160Z,10.40
2023-03-16T20:40:29.127Z,10.24
2023-03-16T20:42:56.374Z,10.15
2023-03-16T20:45:25.936Z,10.14
2023-03-16T20:47:53.765Z,10.21
2023-03-16T20:50:30.736Z,10.12
2023-03-16T20:52:57.493Z,10.18
2023-03-16T20:55:27.242Z,10.06
2023-03-16T20:57:58.385Z,10.17
2023-03-16T21:00:36.464Z,10.11
2023-03-16T21:03:13.411Z,10.07
2023-03-16T21:05:40.893Z,10.05
2023-03-16T21:08:08.240Z,10.17
2023-03-16T21:10:37.253Z,10.19
2023-03-16T21:13:21.189Z,10.17
2023-03-16T21:15:50.761Z,10.17
2023-03-16T21:18:20.424Z,10.07
2023-03-16T21:20:49.260Z,9.98
2023-03-16T21:23:24.395Z,9.98
2023-03-16T21:25:55.725Z,10.21
2023-03-16T21:28:29.071Z,10.08
2023-03-16T21:30:58.101Z,10.24
2023-03-16T21:33:31.817Z,10.20
2023-03-16T21:36:00.493Z,10.14
2023-03-16T21:38:32.872Z,10.37
2023-03-16T21:41:02.665Z,10.25
2023-03-16T21:43:35.893Z,10.23
2023-03-16T21:46:04.347Z,10.25
2023-03-16T21:48:40.201Z,10.37
2023-03-16T21:51:25.749Z,10.38
2023-03-16T21:53:53.846Z,10.25
2023-03-16T21:56:23.859Z,10.21
2023-03-16T21:58:50.840Z,10.18
2023-03-16T22:01:21.988Z,10.11
2023-03-16T22:03:54.707Z,10.15
2023-03-16T22:06:25.396Z,10.33
2023-03-16T22:08:53.907Z,10.23
2023-03-16T22:11:23.470Z,10.15
2023-03-16T22:13:51.489Z,10.16
2023-03-16T22:16:20.776Z,10.16
2023-03-16T22:18:55.136Z,10.07
2023-03-16T22:21:40.879Z,10.11
2023-03-16T22:24:20.508Z,10.22
2023-03-16T22:26:48.979Z,10.03
2023-03-16T22:29:30.089Z,9.97
2023-03-16T22:32:15.922Z,10.08
2023-03-16T22:34:46.246Z,10.18
2023-03-16T22:37:17.664Z,10.25
2023-03-16T22:39:44.931Z,10.24
2023-03-16T22:42:27.763Z,10.34
2023-03-16T22:44:56.093Z,10.21
2023-03-16T22:47:26.132Z,10.39
2023-03-16T22:49:53.680Z,10.08
2023-03-16T22:52:25.603Z,10.31
2023-03-16T22:54:52.657Z,10.23
2023-03-16T22:57:19.749Z,10.44
2023-03-16T22:59:47.485Z,10.30
2023-03-16T23:02:15.310Z,10.41
2023-03-16T23:04:42.271Z,10.33
2023-03-16T23:07:13.363Z,10.12
2023-03-16T23:09:40.553Z,10.12
2023-03-16T23:12:15.806Z,10.05
2023-03-16T23:14:43.361Z,10.17
2023-03-16T23:17:17.533Z,9.98
2023-03-16T23:19:44.539Z,10.21
2023-03-16T23:22:11.533Z,10.22
2023-03-16T23:24:38.477Z,10.18
2023-03-16T23:27:13.773Z,10.22
2023-03-16T23:29:41.102Z,10.05
2023-03-16T23:32:09.965Z,10.17
2023-03-16T23:34:37.109Z,10.21
2023-03-16T23:37:03.694Z,9.92
2023-03-16T23:39:30.448Z,9.80
2023-03-16T23:41:57.218Z,9.91
2023-03-16T23:44:28.370Z,10.16
2023-03-16T23:46:55.315Z,9.96
2023-03-16T23:49:25.250Z,9.99
2023-03-16T23:51:52.761Z,10.09
2023-03-16T23:54:23.162Z,10.14
2023-03-16T23:56:50.604Z,10.12
2023-03-16T23:59:17.463Z,9.97
